Seattle, Washington
Traffic Map
Current Weather Conditions
Seattle, Washington
Scattered Clouds
Scattered Clouds
19°
Feels Like: 19°
Wind Chill: 19° Ceiling: Unl
Heat Index: 19° Visibility: 10mi
Dew Point: 11° Wind: 3mph
Humidity: 59% Direction: ° ()
Pressure: 30.15in Gusts: 0mph
Raw Report DataKBFI 251653Z VRB03KT 10SM SCT017 19/11 A3015 RMK AO2 SLP210 T01890106
Traffic Incident Summary
Active as of:
Severity:
Category:
InformationThere was an issue retrieving the traffic information for this location. Please try a different location or try again shortly.
Advertisements
Track Severe Weather on mobile